sensor_id;sensor_type;location;lat;lon;timestamp;temperature;humidity
22676;DHT22;12521;43.310;21.876;2023-04-05T00:00:39;2.8;96.0
22676;DHT22;12521;43.310;21.876;2023-04-05T00:05:17;2.8;96.0
22676;DHT22;12521;43.310;21.876;2023-04-05T00:09:53;2.9;96.0
22676;DHT22;12521;43.310;21.876;2023-04-05T00:14:30;2.9;96.0
22676;DHT22;12521;43.310;21.876;2023-04-05T00:19:07;3.0;96.0
22676;DHT22;12521;43.310;21.876;2023-04-05T00:23:44;3.0;96.0
22676;DHT22;12521;43.310;21.876;2023-04-05T00:28:22;3.0;96.0
22676;DHT22;12521;43.310;21.876;2023-04-05T00:32:59;3.0;96.0
22676;DHT22;12521;43.310;21.876;2023-04-05T00:37:36;3.0;96.0
22676;DHT22;12521;43.310;21.876;2023-04-05T00:42:13;3.0;96.0
22676;DHT22;12521;43.310;21.876;2023-04-05T00:46:50;3.0;96.0
22676;DHT22;12521;43.310;21.876;2023-04-05T00:51:29;3.0;96.0
22676;DHT22;12521;43.310;21.876;2023-04-05T00:56:08;2.8;96.0
22676;DHT22;12521;43.310;21.876;2023-04-05T01:00:57;2.8;96.0
22676;DHT22;12521;43.310;21.876;2023-04-05T01:06:04;2.8;96.0
22676;DHT22;12521;43.310;21.876;2023-04-05T01:11:12;2.7;96.0
22676;DHT22;12521;43.310;21.876;2023-04-05T01:15:51;2.7;96.0
22676;DHT22;12521;43.310;21.876;2023-04-05T01:20:36;2.7;96.0
22676;DHT22;12521;43.310;21.876;2023-04-05T01:25:59;2.7;96.0
22676;DHT22;12521;43.310;21.876;2023-04-05T01:31:40;2.7;96.0
22676;DHT22;12521;43.310;21.876;2023-04-05T01:36:43;2.7;96.0
22676;DHT22;12521;43.310;21.876;2023-04-05T01:41:33;2.7;96.0
22676;DHT22;12521;43.310;21.876;2023-04-05T01:46:10;2.7;96.0
22676;DHT22;12521;43.310;21.876;2023-04-05T01:50:46;2.7;96.0
22676;DHT22;12521;43.310;21.876;2023-04-05T01:55:23;2.7;96.0
22676;DHT22;12521;43.310;21.876;2023-04-05T02:00:00;2.7;96.0
22676;DHT22;12521;43.310;21.876;2023-04-05T02:04:37;2.7;96.0
22676;DHT22;12521;43.310;21.876;2023-04-05T02:09:15;2.6;96.0
22676;DHT22;12521;43.310;21.876;2023-04-05T02:13:52;2.6;96.0
22676;DHT22;12521;43.310;21.876;2023-04-05T02:18:29;2.6;96.0
22676;DHT22;12521;43.310;21.876;2023-04-05T02:23:07;2.6;96.0
22676;DHT22;12521;43.310;21.876;2023-04-05T02:27:44;2.5;96.0
22676;DHT22;12521;43.310;21.876;2023-04-05T02:32:22;2.5;96.0
22676;DHT22;12521;43.310;21.876;2023-04-05T02:37:00;2.4;96.0
22676;DHT22;12521;43.310;21.876;2023-04-05T02:41:37;2.4;96.0
22676;DHT22;12521;43.310;21.876;2023-04-05T02:46:13;2.4;96.0
22676;DHT22;12521;43.310;21.876;2023-04-05T02:50:50;2.4;96.0
22676;DHT22;12521;43.310;21.876;2023-04-05T02:55:27;2.4;96.0
22676;DHT22;12521;43.310;21.876;2023-04-05T03:00:06;2.3;96.0
22676;DHT22;12521;43.310;21.876;2023-04-05T03:04:47;2.3;96.0
22676;DHT22;12521;43.310;21.876;2023-04-05T03:09:27;2.2;96.0
22676;DHT22;12521;43.310;21.876;2023-04-05T03:14:05;2.2;96.0
22676;DHT22;12521;43.310;21.876;2023-04-05T03:18:42;2.2;96.0
22676;DHT22;12521;43.310;21.876;2023-04-05T03:23:19;2.2;96.0
22676;DHT22;12521;43.310;21.876;2023-04-05T03:27:56;2.2;96.0
22676;DHT22;12521;43.310;21.876;2023-04-05T03:32:33;2.2;96.0
22676;DHT22;12521;43.310;21.876;2023-04-05T03:37:10;2.2;96.0
22676;DHT22;12521;43.310;21.876;2023-04-05T03:41:47;2.2;96.0
22676;DHT22;12521;43.310;21.876;2023-04-05T03:46:23;2.1;96.0
22676;DHT22;12521;43.310;21.876;2023-04-05T03:51:00;2.1;96.0
22676;DHT22;12521;43.310;21.876;2023-04-05T03:55:36;2.1;96.0
22676;DHT22;12521;43.310;21.876;2023-04-05T04:00:13;2.1;96.0
22676;DHT22;12521;43.310;21.876;2023-04-05T04:04:50;2.1;96.0
22676;DHT22;12521;43.310;21.876;2023-04-05T04:09:27;2.1;96.0
22676;DHT22;12521;43.310;21.876;2023-04-05T04:14:04;2.1;96.0
22676;DHT22;12521;43.310;21.876;2023-04-05T04:18:40;2.2;96.0
22676;DHT22;12521;43.310;21.876;2023-04-05T04:23:17;2.2;96.0
22676;DHT22;12521;43.310;21.876;2023-04-05T04:27:54;2.2;96.0
22676;DHT22;12521;43.310;21.876;2023-04-05T04:32:31;2.2;96.0
22676;DHT22;12521;43.310;21.876;2023-04-05T04:37:07;2.2;96.0
22676;DHT22;12521;43.310;21.876;2023-04-05T04:41:44;2.2;96.0
22676;DHT22;12521;43.310;21.876;2023-04-05T04:46:21;2.1;96.0
22676;DHT22;12521;43.310;21.876;2023-04-05T04:50:58;2.1;96.0
22676;DHT22;12521;43.310;21.876;2023-04-05T04:55:39;2.1;96.0
22676;DHT22;12521;43.310;21.876;2023-04-05T05:00:16;2.1;96.0
22676;DHT22;12521;43.310;21.876;2023-04-05T05:04:55;2.1;96.0
22676;DHT22;12521;43.310;21.876;2023-04-05T05:09:32;2.1;96.0
22676;DHT22;12521;43.310;21.876;2023-04-05T05:14:08;2.1;96.0
22676;DHT22;12521;43.310;21.876;2023-04-05T05:18:45;2.0;96.0
22676;DHT22;12521;43.310;21.876;2023-04-05T05:23:22;2.0;96.0
22676;DHT22;12521;43.310;21.876;2023-04-05T05:27:58;1.9;96.0
22676;DHT22;12521;43.310;21.876;2023-04-05T05:32:35;1.9;96.0
22676;DHT22;12521;43.310;21.876;2023-04-05T05:37:11;2.0;96.0
22676;DHT22;12521;43.310;21.876;2023-04-05T05:41:48;2.0;96.0
22676;DHT22;12521;43.310;21.876;2023-04-05T05:46:25;2.0;96.0
22676;DHT22;12521;43.310;21.876;2023-04-05T05:51:02;2.0;96.0
22676;DHT22;12521;43.310;21.876;2023-04-05T05:55:40;2.0;96.0
22676;DHT22;12521;43.310;21.876;2023-04-05T06:00:18;2.2;96.0
22676;DHT22;12521;43.310;21.876;2023-04-05T06:04:57;2.2;96.0
22676;DHT22;12521;43.310;21.876;2023-04-05T06:09:34;2.3;96.0
22676;DHT22;12521;43.310;21.876;2023-04-05T06:14:11;2.3;96.0
22676;DHT22;12521;43.310;21.876;2023-04-05T06:18:48;2.2;96.0
22676;DHT22;12521;43.310;21.876;2023-04-05T06:23:25;2.2;96.0
22676;DHT22;12521;43.310;21.876;2023-04-05T06:28:03;2.1;96.0
22676;DHT22;12521;43.310;21.876;2023-04-05T06:32:42;2.1;96.0
22676;DHT22;12521;43.310;21.876;2023-04-05T06:37:18;2.1;96.0
22676;DHT22;12521;43.310;21.876;2023-04-05T06:41:54;2.1;96.0
22676;DHT22;12521;43.310;21.876;2023-04-05T06:46:31;2.1;96.0
22676;DHT22;12521;43.310;21.876;2023-04-05T06:51:07;2.1;96.0
22676;DHT22;12521;43.310;21.876;2023-04-05T06:55:48;2.1;96.0
22676;DHT22;12521;43.310;21.876;2023-04-05T07:00:25;2.0;96.0
22676;DHT22;12521;43.310;21.876;2023-04-05T07:05:02;2.0;96.0
22676;DHT22;12521;43.310;21.876;2023-04-05T07:09:41;2.0;96.0
22676;DHT22;12521;43.310;21.876;2023-04-05T07:14:18;2.0;96.0
22676;DHT22;12521;43.310;21.876;2023-04-05T07:18:55;2.1;96.0
22676;DHT22;12521;43.310;21.876;2023-04-05T07:23:32;2.1;96.0
22676;DHT22;12521;43.310;21.876;2023-04-05T07:28:09;2.2;96.0
22676;DHT22;12521;43.310;21.876;2023-04-05T07:32:46;2.2;96.0
22676;DHT22;12521;43.310;21.876;2023-04-05T07:37:24;2.1;96.0
22676;DHT22;12521;43.310;21.876;2023-04-05T07:42:00;2.1;96.0
22676;DHT22;12521;43.310;21.876;2023-04-05T07:46:38;2.0;96.0
22676;DHT22;12521;43.310;21.876;2023-04-05T07:51:15;2.0;96.0
22676;DHT22;12521;43.310;21.876;2023-04-05T07:55:51;2.0;96.0
22676;DHT22;12521;43.310;21.876;2023-04-05T08:00:28;1.9;96.0
22676;DHT22;12521;43.310;21.876;2023-04-05T08:05:05;1.9;96.0
22676;DHT22;12521;43.310;21.876;2023-04-05T08:09:43;1.8;96.0
22676;DHT22;12521;43.310;21.876;2023-04-05T08:14:19;1.8;96.0
22676;DHT22;12521;43.310;21.876;2023-04-05T08:18:56;1.8;96.0
22676;DHT22;12521;43.310;21.876;2023-04-05T08:23:33;1.8;96.0
22676;DHT22;12521;43.310;21.876;2023-04-05T08:28:09;1.8;96.0
22676;DHT22;12521;43.310;21.876;2023-04-05T08:32:46;1.8;96.0
22676;DHT22;12521;43.310;21.876;2023-04-05T08:37:23;1.9;96.0
22676;DHT22;12521;43.310;21.876;2023-04-05T08:42:10;1.9;96.0
22676;DHT22;12521;43.310;21.876;2023-04-05T08:47:04;2.0;96.0
22676;DHT22;12521;43.310;21.876;2023-04-05T08:51:47;2.0;96.0
22676;DHT22;12521;43.310;21.876;2023-04-05T08:56:32;2.0;96.0
22676;DHT22;12521;43.310;21.876;2023-04-05T09:01:11;2.2;96.0
22676;DHT22;12521;43.310;21.876;2023-04-05T09:05:51;2.2;96.0
22676;DHT22;12521;43.310;21.876;2023-04-05T09:10:29;2.4;96.0
22676;DHT22;12521;43.310;21.876;2023-04-05T09:15:07;2.4;96.0
22676;DHT22;12521;43.310;21.876;2023-04-05T09:19:45;2.6;96.0
22676;DHT22;12521;43.310;21.876;2023-04-05T09:24:31;2.6;96.0
22676;DHT22;12521;43.310;21.876;2023-04-05T09:29:28;2.7;96.0
22676;DHT22;12521;43.310;21.876;2023-04-05T09:34:05;2.7;96.0
22676;DHT22;12521;43.310;21.876;2023-04-05T09:38:44;2.8;96.0
22676;DHT22;12521;43.310;21.876;2023-04-05T09:43:38;2.8;96.0
22676;DHT22;12521;43.310;21.876;2023-04-05T09:48:17;3.0;96.0
22676;DHT22;12521;43.310;21.876;2023-04-05T09:53:07;3.0;96.0
22676;DHT22;12521;43.310;21.876;2023-04-05T09:57:48;3.2;96.0
22676;DHT22;12521;43.310;21.876;2023-04-05T10:02:35;3.2;96.0
22676;DHT22;12521;43.310;21.876;2023-04-05T10:07:18;3.4;96.0
22676;DHT22;12521;43.310;21.876;2023-04-05T10:11:56;3.4;96.0
22676;DHT22;12521;43.310;21.876;2023-04-05T10:16:52;3.4;96.0
22676;DHT22;12521;43.310;21.876;2023-04-05T10:21:53;3.4;96.0
22676;DHT22;12521;43.310;21.876;2023-04-05T10:26:54;3.4;96.0
22676;DHT22;12521;43.310;21.876;2023-04-05T10:31:54;3.4;96.0
22676;DHT22;12521;43.310;21.876;2023-04-05T10:36:49;3.6;96.0
22676;DHT22;12521;43.310;21.876;2023-04-05T10:41:38;3.6;96.0
22676;DHT22;12521;43.310;21.876;2023-04-05T10:46:23;3.6;96.0
22676;DHT22;12521;43.310;21.876;2023-04-05T10:51:03;3.7;96.0
22676;DHT22;12521;43.310;21.876;2023-04-05T10:55:43;3.7;96.0
22676;DHT22;12521;43.310;21.876;2023-04-05T11:00:22;4.0;96.0
22676;DHT22;12521;43.310;21.876;2023-04-05T11:05:02;4.0;96.0
22676;DHT22;12521;43.310;21.876;2023-04-05T11:10:05;4.2;96.0
22676;DHT22;12521;43.310;21.876;2023-04-05T11:15:27;4.2;96.0
22676;DHT22;12521;43.310;21.876;2023-04-05T11:20:10;4.3;96.0
22676;DHT22;12521;43.310;21.876;2023-04-05T11:24:50;4.3;96.0
22676;DHT22;12521;43.310;21.876;2023-04-05T11:29:48;4.4;96.0
22676;DHT22;12521;43.310;21.876;2023-04-05T11:34:26;4.4;96.0
22676;DHT22;12521;43.310;21.876;2023-04-05T11:39:34;4.4;96.0
22676;DHT22;12521;43.310;21.876;2023-04-05T11:44:12;4.4;96.0
22676;DHT22;12521;43.310;21.876;2023-04-05T11:48:51;4.4;96.0
22676;DHT22;12521;43.310;21.876;2023-04-05T11:53:28;4.4;96.0
22676;DHT22;12521;43.310;21.876;2023-04-05T11:58:13;4.2;96.0
22676;DHT22;12521;43.310;21.876;2023-04-05T12:02:55;4.2;96.0
22676;DHT22;12521;43.310;21.876;2023-04-05T12:07:31;4.1;96.0
22676;DHT22;12521;43.310;21.876;2023-04-05T12:12:15;4.1;96.0
22676;DHT22;12521;43.310;21.876;2023-04-05T12:16:52;4.0;96.0
22676;DHT22;12521;43.310;21.876;2023-04-05T12:21:29;4.0;96.0
22676;DHT22;12521;43.310;21.876;2023-04-05T12:26:07;4.0;96.0
22676;DHT22;12521;43.310;21.876;2023-04-05T12:30:48;4.0;96.0
22676;DHT22;12521;43.310;21.876;2023-04-05T12:35:32;4.0;96.0
22676;DHT22;12521;43.310;21.876;2023-04-05T12:40:11;4.0;96.0
22676;DHT22;12521;43.310;21.876;2023-04-05T12:45:02;4.0;96.0
22676;DHT22;12521;43.310;21.876;2023-04-05T12:49:49;4.1;96.0
22676;DHT22;12521;43.310;21.876;2023-04-05T12:54:26;4.1;96.0
22676;DHT22;12521;43.310;21.876;2023-04-05T12:59:05;4.0;96.0
22676;DHT22;12521;43.310;21.876;2023-04-05T13:03:43;4.0;96.0
22676;DHT22;12521;43.310;21.876;2023-04-05T13:08:20;3.9;96.0
22676;DHT22;12521;43.310;21.876;2023-04-05T13:12:57;3.9;96.0
22676;DHT22;12521;43.310;21.876;2023-04-05T13:17:34;3.8;96.0
22676;DHT22;12521;43.310;21.876;2023-04-05T13:22:11;3.8;96.0
22676;DHT22;12521;43.310;21.876;2023-04-05T13:26:47;3.8;96.0
22676;DHT22;12521;43.310;21.876;2023-04-05T13:31:24;3.8;96.0
22676;DHT22;12521;43.310;21.876;2023-04-05T13:36:02;3.8;96.0
22676;DHT22;12521;43.310;21.876;2023-04-05T13:40:40;3.6;96.0
22676;DHT22;12521;43.310;21.876;2023-04-05T13:45:19;3.6;96.0
22676;DHT22;12521;43.310;21.876;2023-04-05T13:49:56;3.5;96.0
22676;DHT22;12521;43.310;21.876;2023-04-05T13:54:33;3.5;96.0
22676;DHT22;12521;43.310;21.876;2023-04-05T13:59:10;3.4;96.0
22676;DHT22;12521;43.310;21.876;2023-04-05T14:03:47;3.4;96.0
22676;DHT22;12521;43.310;21.876;2023-04-05T14:08:24;3.4;96.0
22676;DHT22;12521;43.310;21.876;2023-04-05T14:13:01;3.4;96.0
22676;DHT22;12521;43.310;21.876;2023-04-05T14:17:38;3.4;96.0
22676;DHT22;12521;43.310;21.876;2023-04-05T14:22:15;3.4;96.0
22676;DHT22;12521;43.310;21.876;2023-04-05T14:26:51;3.5;96.0
22676;DHT22;12521;43.310;21.876;2023-04-05T14:31:28;3.5;96.0
22676;DHT22;12521;43.310;21.876;2023-04-05T14:36:04;3.5;96.0
22676;DHT22;12521;43.310;21.876;2023-04-05T14:40:41;3.4;96.0
22676;DHT22;12521;43.310;21.876;2023-04-05T14:45:18;3.4;96.0
22676;DHT22;12521;43.310;21.876;2023-04-05T14:49:54;3.4;96.0
22676;DHT22;12521;43.310;21.876;2023-04-05T14:54:31;3.4;96.0
22676;DHT22;12521;43.310;21.876;2023-04-05T14:59:08;3.4;96.0
22676;DHT22;12521;43.310;21.876;2023-04-05T15:03:44;3.4;96.0
22676;DHT22;12521;43.310;21.876;2023-04-05T15:08:21;3.4;96.0
22676;DHT22;12521;43.310;21.876;2023-04-05T15:12:58;3.4;96.0
22676;DHT22;12521;43.310;21.876;2023-04-05T15:17:35;3.4;96.0
22676;DHT22;12521;43.310;21.876;2023-04-05T15:22:12;3.4;96.0
22676;DHT22;12521;43.310;21.876;2023-04-05T15:26:50;3.4;96.0
22676;DHT22;12521;43.310;21.876;2023-04-05T15:31:27;3.5;96.0
22676;DHT22;12521;43.310;21.876;2023-04-05T15:36:09;3.5;96.0
22676;DHT22;12521;43.310;21.876;2023-04-05T15:40:46;3.6;96.0
22676;DHT22;12521;43.310;21.876;2023-04-05T15:45:23;3.6;96.0
22676;DHT22;12521;43.310;21.876;2023-04-05T15:50:00;3.6;96.0
22676;DHT22;12521;43.310;21.876;2023-04-05T15:54:37;3.6;96.0
22676;DHT22;12521;43.310;21.876;2023-04-05T15:59:14;3.6;96.0
22676;DHT22;12521;43.310;21.876;2023-04-05T16:03:51;3.6;96.0
22676;DHT22;12521;43.310;21.876;2023-04-05T16:08:28;3.5;96.0
22676;DHT22;12521;43.310;21.876;2023-04-05T16:13:05;3.5;96.0
22676;DHT22;12521;43.310;21.876;2023-04-05T16:17:42;3.4;96.0
22676;DHT22;12521;43.310;21.876;2023-04-05T16:22:19;3.4;96.0
22676;DHT22;12521;43.310;21.876;2023-04-05T16:26:56;3.4;96.0
22676;DHT22;12521;43.310;21.876;2023-04-05T16:31:34;3.4;96.0
22676;DHT22;12521;43.310;21.876;2023-04-05T16:36:12;3.4;96.0
22676;DHT22;12521;43.310;21.876;2023-04-05T16:40:50;3.4;96.0
22676;DHT22;12521;43.310;21.876;2023-04-05T16:45:27;3.4;96.0
22676;DHT22;12521;43.310;21.876;2023-04-05T16:50:05;3.3;96.0
22676;DHT22;12521;43.310;21.876;2023-04-05T16:54:45;3.3;96.0
22676;DHT22;12521;43.310;21.876;2023-04-05T16:59:22;3.2;96.0
22676;DHT22;12521;43.310;21.876;2023-04-05T17:03:59;3.2;96.0
22676;DHT22;12521;43.310;21.876;2023-04-05T17:08:35;3.1;96.0
22676;DHT22;12521;43.310;21.876;2023-04-05T17:13:11;3.1;96.0
22676;DHT22;12521;43.310;21.876;2023-04-05T17:17:48;3.1;96.0
22676;DHT22;12521;43.310;21.876;2023-04-05T17:22:25;3.1;96.0
22676;DHT22;12521;43.310;21.876;2023-04-05T17:27:02;3.1;96.0
22676;DHT22;12521;43.310;21.876;2023-04-05T17:31:39;3.1;96.0
22676;DHT22;12521;43.310;21.876;2023-04-05T17:36:16;3.1;96.0
22676;DHT22;12521;43.310;21.876;2023-04-05T17:40:53;3.0;96.0
22676;DHT22;12521;43.310;21.876;2023-04-05T17:45:30;3.0;96.0
22676;DHT22;12521;43.310;21.876;2023-04-05T17:50:07;2.8;96.0
22676;DHT22;12521;43.310;21.876;2023-04-05T17:54:46;2.8;96.0
22676;DHT22;12521;43.310;21.876;2023-04-05T17:59:23;2.7;96.0
22676;DHT22;12521;43.310;21.876;2023-04-05T18:04:00;2.7;96.0
22676;DHT22;12521;43.310;21.876;2023-04-05T18:08:37;2.6;96.0
22676;DHT22;12521;43.310;21.876;2023-04-05T18:13:14;2.6;96.0
22676;DHT22;12521;43.310;21.876;2023-04-05T18:17:51;2.6;96.0
22676;DHT22;12521;43.310;21.876;2023-04-05T18:22:30;2.6;96.0
22676;DHT22;12521;43.310;21.876;2023-04-05T18:27:07;2.5;96.0
22676;DHT22;12521;43.310;21.876;2023-04-05T18:31:44;2.5;96.0
22676;DHT22;12521;43.310;21.876;2023-04-05T18:36:21;2.5;96.0
22676;DHT22;12521;43.310;21.876;2023-04-05T18:40:59;2.6;96.0
22676;DHT22;12521;43.310;21.876;2023-04-05T18:45:39;2.6;96.0
22676;DHT22;12521;43.310;21.876;2023-04-05T18:50:16;2.6;96.0
22676;DHT22;12521;43.310;21.876;2023-04-05T18:54:53;2.6;96.0
22676;DHT22;12521;43.310;21.876;2023-04-05T18:59:30;2.7;96.0
22676;DHT22;12521;43.310;21.876;2023-04-05T19:04:07;2.7;96.0
22676;DHT22;12521;43.310;21.876;2023-04-05T19:08:44;2.7;96.0
22676;DHT22;12521;43.310;21.876;2023-04-05T19:13:21;2.7;96.0
22676;DHT22;12521;43.310;21.876;2023-04-05T19:17:58;2.6;96.0
22676;DHT22;12521;43.310;21.876;2023-04-05T19:22:35;2.6;96.0
22676;DHT22;12521;43.310;21.876;2023-04-05T19:27:12;2.5;96.0
22676;DHT22;12521;43.310;21.876;2023-04-05T19:31:49;2.5;96.0
22676;DHT22;12521;43.310;21.876;2023-04-05T19:36:25;2.5;96.0
22676;DHT22;12521;43.310;21.876;2023-04-05T19:41:02;2.4;96.0
22676;DHT22;12521;43.310;21.876;2023-04-05T19:45:39;2.4;96.0
22676;DHT22;12521;43.310;21.876;2023-04-05T19:50:41;2.3;96.0
22676;DHT22;12521;43.310;21.876;2023-04-05T19:55:26;2.3;96.0
22676;DHT22;12521;43.310;21.876;2023-04-05T20:00:29;2.4;96.0
22676;DHT22;12521;43.310;21.876;2023-04-05T20:05:52;2.4;96.0
22676;DHT22;12521;43.310;21.876;2023-04-05T20:10:42;2.5;96.0
22676;DHT22;12521;43.310;21.876;2023-04-05T20:15:31;2.5;96.0
22676;DHT22;12521;43.310;21.876;2023-04-05T20:20:15;2.6;96.0
22676;DHT22;12521;43.310;21.876;2023-04-05T20:24:52;2.6;96.0
22676;DHT22;12521;43.310;21.876;2023-04-05T20:29:29;2.6;96.0
22676;DHT22;12521;43.310;21.876;2023-04-05T20:34:08;2.6;96.0
22676;DHT22;12521;43.310;21.876;2023-04-05T20:38:59;2.6;96.0
22676;DHT22;12521;43.310;21.876;2023-04-05T20:43:42;2.6;96.0
22676;DHT22;12521;43.310;21.876;2023-04-05T20:48:21;2.6;96.0
22676;DHT22;12521;43.310;21.876;2023-04-05T20:52:58;2.6;96.0
22676;DHT22;12521;43.310;21.876;2023-04-05T20:57:35;2.6;96.0
22676;DHT22;12521;43.310;21.876;2023-04-05T21:02:12;2.6;96.0
22676;DHT22;12521;43.310;21.876;2023-04-05T21:06:48;2.6;96.0
22676;DHT22;12521;43.310;21.876;2023-04-05T21:20:41;2.6;96.0
22676;DHT22;12521;43.310;21.876;2023-04-05T21:25:18;2.6;96.0
22676;DHT22;12521;43.310;21.876;2023-04-05T21:29:54;2.6;96.0
22676;DHT22;12521;43.310;21.876;2023-04-05T21:34:31;2.6;96.0
22676;DHT22;12521;43.310;21.876;2023-04-05T21:39:08;2.7;96.0
22676;DHT22;12521;43.310;21.876;2023-04-05T21:43:44;2.7;96.0
22676;DHT22;12521;43.310;21.876;2023-04-05T21:48:21;2.7;96.0
22676;DHT22;12521;43.310;21.876;2023-04-05T21:52:57;2.7;96.0
22676;DHT22;12521;43.310;21.876;2023-04-05T21:57:34;2.8;96.0
22676;DHT22;12521;43.310;21.876;2023-04-05T22:02:11;2.8;96.0
22676;DHT22;12521;43.310;21.876;2023-04-05T22:06:48;2.8;96.0
22676;DHT22;12521;43.310;21.876;2023-04-05T22:11:25;2.8;96.0
22676;DHT22;12521;43.310;21.876;2023-04-05T22:16:03;2.8;96.0
22676;DHT22;12521;43.310;21.876;2023-04-05T22:20:41;2.8;96.0
22676;DHT22;12521;43.310;21.876;2023-04-05T22:25:18;2.8;96.0
22676;DHT22;12521;43.310;21.876;2023-04-05T22:29:54;2.8;96.0
22676;DHT22;12521;43.310;21.876;2023-04-05T22:34:31;2.8;96.0
22676;DHT22;12521;43.310;21.876;2023-04-05T22:39:08;2.8;96.0
22676;DHT22;12521;43.310;21.876;2023-04-05T22:43:44;2.8;96.0
22676;DHT22;12521;43.310;21.876;2023-04-05T22:48:21;2.9;96.0
22676;DHT22;12521;43.310;21.876;2023-04-05T22:52:58;2.9;96.0
22676;DHT22;12521;43.310;21.876;2023-04-05T22:57:34;2.9;96.0
22676;DHT22;12521;43.310;21.876;2023-04-05T23:02:11;2.9;96.0
22676;DHT22;12521;43.310;21.876;2023-04-05T23:06:48;2.9;96.0
22676;DHT22;12521;43.310;21.876;2023-04-05T23:11:25;2.9;96.0
22676;DHT22;12521;43.310;21.876;2023-04-05T23:16:02;2.9;96.0
22676;DHT22;12521;43.310;21.876;2023-04-05T23:20:40;2.8;96.0
22676;DHT22;12521;43.310;21.876;2023-04-05T23:25:16;2.8;96.0
22676;DHT22;12521;43.310;21.876;2023-04-05T23:29:53;2.8;96.0
22676;DHT22;12521;43.310;21.876;2023-04-05T23:34:30;2.8;96.0
22676;DHT22;12521;43.310;21.876;2023-04-05T23:39:07;2.8;96.0
22676;DHT22;12521;43.310;21.876;2023-04-05T23:43:44;2.8;96.0
22676;DHT22;12521;43.310;21.876;2023-04-05T23:48:21;2.8;96.0
22676;DHT22;12521;43.310;21.876;2023-04-05T23:52:58;2.8;96.0
22676;DHT22;12521;43.310;21.876;2023-04-05T23:57:34;2.8;96.0
